Time;durP1;ratioP1;P1;durP2;ratioP2;P2;SDS_P1;SDS_P2;PMS_P1;PMS_P2;Temp;Humidity;BMP_temperature;BMP_pressure;BME280_temperature;BME280_humidity;BME280_pressure;Samples;Min_cycle;Max_cycle;Signal;HPM_P1;HPM_P2
2022/12/03 00:00:34;;;;;;;11.70;9.07;;;;;;;17.84;44.75;102408.41;5055352;28;20044;-66
2022/12/03 00:02:59;;;;;;;11.10;7.72;;;;;;;17.81;45.12;102401.44;5052493;28;20033;-66
2022/12/03 00:05:25;;;;;;;12.05;8.63;;;;;;;17.83;44.64;102396.78;5044432;28;20033;-67
2022/12/03 00:07:50;;;;;;;10.32;8.30;;;;;;;17.84;44.85;102408.41;5060725;28;20029;-67
2022/12/03 00:10:15;;;;;;;10.18;7.70;;;;;;;17.78;44.83;102396.31;5063958;28;20037;-67
2022/12/03 00:12:40;;;;;;;10.18;7.93;;;;;;;17.77;45.05;102389.22;5064582;28;20032;-66
2022/12/03 00:15:07;;;;;;;10.35;7.93;;;;;;;17.84;45.00;102394.94;5064492;28;20033;-67
2022/12/03 00:17:32;;;;;;;11.30;8.57;;;;;;;17.83;44.80;102386.03;5056208;28;20482;-67
2022/12/03 00:19:57;;;;;;;12.00;8.68;;;;;;;17.83;44.94;102393.25;5049009;28;20062;-67
2022/12/03 00:22:22;;;;;;;11.50;8.63;;;;;;;17.82;44.92;102400.47;5047007;28;20068;-67
2022/12/03 00:24:48;;;;;;;9.93;7.65;;;;;;;17.83;44.72;102393.25;5058487;28;20362;-67
2022/12/03 00:27:13;;;;;;;10.38;8.18;;;;;;;17.82;44.78;102386.16;5062594;28;20064;-67
2022/12/03 00:29:38;;;;;;;10.52;7.60;;;;;;;17.82;44.83;102388.84;5063958;28;20061;-66
2022/12/03 00:32:04;;;;;;;10.38;8.02;;;;;;;17.75;44.85;102375.03;5063882;28;20032;-66
2022/12/03 00:34:29;;;;;;;9.55;7.85;;;;;;;17.74;44.69;102376.00;5064232;28;20085;-67
2022/12/03 00:36:54;;;;;;;9.93;7.35;;;;;;;17.81;44.64;102376.38;5063807;28;20067;-65
2022/12/03 00:39:19;;;;;;;9.82;6.72;;;;;;;17.81;44.59;102388.00;5063946;28;20064;-67
2022/12/03 00:41:45;;;;;;;9.95;7.30;;;;;;;17.81;44.85;102387.16;5064235;28;20017;-67
2022/12/03 00:44:10;;;;;;;10.23;7.57;;;;;;;17.81;44.97;102387.16;5063977;28;20028;-66
2022/12/03 00:46:36;;;;;;;11.82;8.45;;;;;;;17.80;44.88;102386.28;5062881;28;20049;-67
2022/12/03 00:49:01;;;;;;;10.23;7.20;;;;;;;17.81;44.62;102381.75;5064065;28;20078;-67
2022/12/03 00:51:27;;;;;;;11.23;7.38;;;;;;;17.70;44.79;102371.84;5063236;28;20021;-65
2022/12/03 00:53:52;;;;;;;10.15;8.02;;;;;;;17.80;44.92;102386.28;5058080;28;20072;-67
2022/12/03 00:56:17;;;;;;;8.95;7.30;;;;;;;17.76;44.64;102376.75;5043707;28;20048;-67
2022/12/03 00:58:42;;;;;;;9.85;7.38;;;;;;;17.81;44.53;102381.75;5044368;28;20155;-67
2022/12/03 01:01:08;;;;;;;8.18;6.70;;;;;;;17.80;44.85;102380.91;5042657;28;20025;-66
2022/12/03 01:03:33;;;;;;;10.25;7.20;;;;;;;17.79;44.76;102381.88;5056487;28;20037;-67
2022/12/03 01:05:58;;;;;;;11.18;7.20;;;;;;;17.79;44.77;102376.50;5048659;28;20516;-67
2022/12/03 01:08:24;;;;;;;9.68;6.88;;;;;;;17.79;44.78;102375.63;5064224;28;20029;-67
2022/12/03 01:10:49;;;;;;;10.10;7.63;;;;;;;17.80;44.62;102380.03;5064976;28;20414;-67
2022/12/03 01:13:14;;;;;;;9.77;7.57;;;;;;;17.79;44.97;102381.00;5067756;28;20108;-67
2022/12/03 01:15:39;;;;;;;9.65;7.85;;;;;;;17.79;44.62;102370.25;5065880;28;20029;-67
2022/12/03 01:18:04;;;;;;;10.18;7.20;;;;;;;17.72;44.74;102362.66;5067606;28;20024;-66
2022/12/03 01:20:30;;;;;;;10.80;7.57;;;;;;;17.78;44.75;102366.72;5067227;28;20040;-67
2022/12/03 01:22:55;;;;;;;9.95;7.20;;;;;;;17.79;44.77;102370.25;5065395;28;20426;-67
2022/12/03 01:25:20;;;;;;;9.52;7.05;;;;;;;17.79;44.70;102370.25;5066713;28;20021;-66
2022/12/03 01:27:46;;;;;;;10.02;6.88;;;;;;;17.78;44.76;102364.03;5067489;28;20358;-65
2022/12/03 01:30:12;;;;;;;8.82;6.70;;;;;;;17.78;44.50;102364.03;5066984;28;20033;-66
2022/12/03 01:32:37;;;;;;;9.82;7.18;;;;;;;17.78;44.78;102364.03;5066535;28;20029;-67
2022/12/03 01:35:03;;;;;;;8.63;7.38;;;;;;;17.78;44.81;102360.47;5048350;28;20037;-66
2022/12/03 01:37:28;;;;;;;10.10;7.47;;;;;;;17.77;44.55;102359.63;5047158;28;20029;-65
2022/12/03 01:39:53;;;;;;;9.82;7.55;;;;;;;17.77;44.72;102351.56;5057929;28;20032;-66
2022/12/03 01:42:28;;;;;;;9.73;7.38;;;;;;;17.78;44.62;102360.47;5066726;28;20024;-67
2022/12/03 01:44:56;;;;;;;8.43;6.88;;;;;;;17.78;44.46;102355.09;5065615;28;20021;-66
2022/12/03 01:47:27;;;;;;;9.48;6.80;;;;;;;17.77;44.70;102350.72;5064631;28;20075;-67
2022/12/03 01:49:59;;;;;;;9.90;7.18;;;;;;;17.77;44.77;102346.19;5065682;28;20029;-66
2022/12/03 01:52:28;;;;;;;9.80;7.13;;;;;;;17.78;44.54;102349.72;5060493;28;20500;-66
2022/12/03 01:54:56;;;;;;;10.23;7.35;;;;;;;17.76;44.72;102347.16;5059078;28;20040;-66
2022/12/03 01:57:41;;;;;;;8.60;6.32;;;;;;;17.78;44.50;102345.19;5060767;28;20092;-66
2022/12/03 02:00:14;;;;;;;8.63;6.85;;;;;;;17.77;44.43;102353.41;5055431;28;20076;-66
2022/12/03 02:02:39;;;;;;;9.40;7.10;;;;;;;17.69;44.56;102338.69;5064718;28;20025;-66
2022/12/03 02:05:17;;;;;;;8.82;6.95;;;;;;;17.77;44.74;102348.03;5066415;28;20060;-66
2022/12/03 02:07:43;;;;;;;8.55;7.07;;;;;;;17.53;44.46;102314.03;5064705;28;20076;-66
2022/12/03 02:10:12;;;;;;;8.77;6.80;;;;;;;17.77;44.69;102345.31;5066182;28;20036;-66
2022/12/03 02:12:38;;;;;;;;;;;;;;;17.77;44.65;102346.19;5066780;28;20089;-65
2022/12/03 02:15:06;;;;;;;8.65;6.30;;;;;;;17.77;44.43;102351.56;5066314;28;19909;-65
2022/12/03 02:17:31;;;;;;;8.50;6.72;;;;;;;17.66;44.56;102330.03;5065278;28;20025;-65
2022/12/03 02:19:57;;;;;;;9.10;6.45;;;;;;;17.74;44.56;102343.72;5064735;28;20123;-65
2022/12/03 02:22:55;;;;;;;7.97;6.63;;;;;;;17.72;44.66;102351.06;5065841;28;20033;-64
2022/12/03 02:25:22;;;;;;;8.70;6.75;;;;;;;17.71;44.73;102342.13;5031440;28;20037;-65
2022/12/03 02:27:48;;;;;;;8.48;6.50;;;;;;;17.53;44.45;102322.09;5064481;28;20052;-66
2022/12/03 02:30:17;;;;;;;8.48;6.38;;;;;;;17.73;44.63;102339.31;5066280;28;20024;-66
2022/12/03 02:32:42;;;;;;;7.35;6.55;;;;;;;17.74;44.60;102349.97;5081497;28;20062;-66
2022/12/03 02:35:19;;;;;;;8.45;6.57;;;;;;;17.68;44.50;102337.00;5065873;28;20049;-66
2022/12/03 02:37:46;;;;;;;7.85;5.97;;;;;;;17.74;44.52;102349.13;5065506;28;20021;-67
2022/12/03 02:40:17;;;;;;;8.35;6.82;;;;;;;17.74;44.53;102351.81;5081212;28;20359;-66
2022/12/03 02:42:43;;;;;;;8.10;6.93;;;;;;;17.59;44.45;102320.78;5064898;28;20021;-65
2022/12/03 02:45:27;;;;;;;7.68;6.30;;;;;;;17.73;44.40;102342.84;5065462;28;20028;-66
2022/12/03 02:47:56;;;;;;;7.20;6.05;;;;;;;17.68;44.53;102334.31;5064998;28;20075;-67
2022/12/03 02:50:26;;;;;;;7.50;6.32;;;;;;;17.74;44.52;102343.72;5064318;28;20041;-66
2022/12/03 02:52:53;;;;;;;7.78;6.43;;;;;;;17.73;44.61;102344.69;5047871;28;20070;-67
2022/12/03 02:55:18;;;;;;;8.68;6.30;;;;;;;17.68;44.43;102336.16;5063651;28;20040;-66
2022/12/03 02:57:45;;;;;;;7.88;6.20;;;;;;;17.74;44.29;102347.28;5065706;28;20013;-66
2022/12/03 03:00:11;;;;;;;10.52;6.72;;;;;;;17.74;44.66;102341.91;5063890;28;20021;-67
2022/12/03 03:02:37;;;;;;;8.40;6.63;;;;;;;17.74;44.38;102336.50;5063511;28;20572;-66
2022/12/03 03:05:04;;;;;;;7.55;5.93;;;;;;;17.73;44.25;102342.00;5063819;28;20025;-68
2022/12/03 03:07:29;;;;;;;7.90;6.30;;;;;;;17.47;44.32;102295.72;5063956;28;20037;-68
2022/12/03 03:09:55;;;;;;;7.63;6.03;;;;;;;17.72;44.27;102335.78;5065127;28;20047;-67
2022/12/03 03:12:20;;;;;;;7.03;5.97;;;;;;;17.73;44.39;102339.31;5065155;28;20021;-67
2022/12/03 03:14:45;;;;;;;8.13;6.38;;;;;;;17.72;44.54;102335.78;5064626;28;20717;-67
2022/12/03 03:17:11;;;;;;;7.28;5.82;;;;;;;17.74;44.60;102330.28;5062945;28;20032;-67
2022/12/03 03:19:36;;;;;;;7.90;6.45;;;;;;;17.74;44.32;102327.59;5065181;28;20102;-67
2022/12/03 03:22:02;;;;;;;8.10;6.20;;;;;;;17.72;44.51;102335.78;5064982;28;20043;-66
2022/12/03 03:24:27;;;;;;;6.32;5.50;;;;;;;17.74;44.34;102332.97;5065006;28;20386;-67
2022/12/03 03:26:52;;;;;;;7.70;6.18;;;;;;;17.72;44.48;102324.16;5064967;28;20032;-67
2022/12/03 03:29:18;;;;;;;7.35;6.55;;;;;;;17.72;44.61;102322.31;5065038;28;20021;-66
2022/12/03 03:31:44;;;;;;;7.18;5.70;;;;;;;17.54;44.42;102288.00;5064257;28;20055;-66
2022/12/03 03:34:10;;;;;;;6.63;5.60;;;;;;;17.72;44.25;102325.00;5064197;28;20029;-66
2022/12/03 03:36:35;;;;;;;6.70;5.80;;;;;;;17.64;44.40;102302.41;5059355;28;20421;-67
2022/12/03 03:39:02;;;;;;;7.57;6.15;;;;;;;17.72;44.24;102324.16;5064810;28;20064;-67
2022/12/03 03:41:28;;;;;;;8.35;6.57;;;;;;;17.67;44.43;102312.91;5063441;28;20040;-67
2022/12/03 03:43:53;;;;;;;7.65;6.30;;;;;;;17.72;44.34;102324.16;5064364;28;20033;-67
2022/12/03 03:46:19;;;;;;;8.85;6.50;;;;;;;17.62;44.26;102304.34;5078702;28;20049;-68
2022/12/03 03:48:45;;;;;;;7.63;6.28;;;;;;;17.72;44.24;102333.06;5064954;28;20489;-67
2022/12/03 03:51:11;;;;;;;6.35;5.50;;;;;;;17.71;44.41;102320.63;5063450;28;20466;-67
2022/12/03 03:53:41;;;;;;;7.25;6.10;;;;;;;17.72;44.21;102318.78;5064465;28;20033;-68
2022/12/03 03:56:07;;;;;;;7.82;6.13;;;;;;;17.70;44.30;102315.34;5064333;28;20163;-68
2022/12/03 03:58:32;;;;;;;7.05;5.78;;;;;;;17.71;44.46;102311.66;5064838;28;20037;-66
2022/12/03 04:00:57;;;;;;;8.45;6.50;;;;;;;17.70;44.38;102310.81;5063584;28;20055;-67
2022/12/03 04:03:23;;;;;;;8.20;6.45;;;;;;;17.71;44.28;102307.16;5063239;28;20029;-67
2022/12/03 04:05:49;;;;;;;7.72;6.75;;;;;;;17.52;44.21;102265.78;5064370;28;20029;-67
2022/12/03 04:08:15;;;;;;;9.98;6.63;;;;;;;17.71;44.22;102300.91;5064613;28;20028;-65
2022/12/03 04:13:24;;;;;;;8.18;6.35;;;;;;;17.70;44.27;102293.81;5057417;28;20064;-66
2022/12/03 04:15:49;;;;;;;7.28;5.65;;;;;;;17.71;44.40;102299.09;5063017;28;20028;-65
2022/12/03 04:23:44;;;;;;;8.00;6.07;;;;;;;17.70;44.32;102296.50;5043264;28;20044;-66
2022/12/03 04:28:53;;;;;;;9.30;6.78;;;;;;;17.68;44.22;102307.41;5064229;28;20027;-65
2022/12/03 04:36:46;;;;;;;7.95;6.38;;;;;;;17.69;44.35;102301.03;5060047;28;20090;-66
2022/12/03 04:39:12;;;;;;;8.48;6.57;;;;;;;17.68;44.36;102298.50;5063816;28;20032;-66
2022/12/03 04:41:37;;;;;;;7.85;6.45;;;;;;;17.64;44.04;102286.28;5064298;28;20029;-66
2022/12/03 04:46:46;;;;;;;8.60;6.72;;;;;;;17.68;44.24;102295.81;5065998;28;20071;-67
2022/12/03 04:49:11;;;;;;;7.90;6.45;;;;;;;17.66;44.17;102292.38;5067646;28;20025;-65
2022/12/03 04:51:36;;;;;;;8.43;6.80;;;;;;;17.67;44.35;102286.88;5067767;28;20032;-65
2022/12/03 04:54:02;;;;;;;10.13;7.28;;;;;;;17.67;44.30;102300.34;5068089;28;20029;-66
2022/12/03 04:56:27;;;;;;;8.10;6.75;;;;;;;17.68;44.03;102302.03;5067595;28;20029;-67
2022/12/03 04:58:52;;;;;;;8.65;6.70;;;;;;;17.67;44.25;102297.63;5067349;28;20516;-67
2022/12/03 05:01:18;;;;;;;8.95;6.82;;;;;;;17.67;44.07;102300.34;5066931;28;20040;-67
2022/12/03 05:03:43;;;;;;;9.02;7.15;;;;;;;17.68;44.09;102299.34;5067982;28;20102;-67
2022/12/03 05:06:08;;;;;;;8.70;7.00;;;;;;;17.66;44.19;102295.91;5067341;28;20025;-66
2022/12/03 05:08:33;;;;;;;9.35;7.00;;;;;;;17.67;44.24;102299.44;5067485;28;20051;-66
2022/12/03 05:10:58;;;;;;;7.90;6.43;;;;;;;17.66;44.09;102295.91;5067388;28;20029;-65
2022/12/03 05:13:24;;;;;;;9.13;6.93;;;;;;;17.65;44.04;102296.91;5068000;28;20117;-66
2022/12/03 05:15:49;;;;;;;8.27;6.60;;;;;;;17.64;43.99;102291.66;5066235;28;20029;-66
2022/12/03 05:18:14;;;;;;;9.45;7.95;;;;;;;17.67;43.97;102300.34;5067037;28;20084;-67
2022/12/03 05:20:42;;;;;;;8.02;6.15;;;;;;;17.65;44.22;102294.22;5067258;28;20021;-66
2022/12/03 05:23:09;;;;;;;8.18;6.57;;;;;;;17.67;44.05;102292.25;5067503;28;20029;-66
2022/12/03 05:25:34;;;;;;;7.32;6.45;;;;;;;17.66;43.96;102295.06;5067262;28;20033;-67
2022/12/03 05:27:59;;;;;;;8.85;7.18;;;;;;;17.67;43.98;102292.25;5066623;28;20033;-66
2022/12/03 05:30:25;;;;;;;8.45;6.18;;;;;;;17.60;44.02;102276.75;5066988;28;20036;-66
2022/12/03 05:32:50;;;;;;;8.32;6.20;;;;;;;17.66;43.97;102287.00;5066729;28;20467;-65
2022/12/03 05:35:15;;;;;;;8.93;6.53;;;;;;;17.67;43.95;102286.00;5047061;28;20091;-67
2022/12/03 05:37:41;;;;;;;8.07;6.65;;;;;;;17.66;44.11;102278.91;5062375;28;20029;-66
2022/12/03 05:40:07;;;;;;;7.65;5.95;;;;;;;17.64;44.19;102275.53;5059818;28;20043;-65
2022/12/03 05:45:17;;;;;;;8.60;6.70;;;;;;;17.66;43.81;102271.69;5066642;28;20082;-65
2022/12/03 05:47:42;;;;;;;7.82;6.55;;;;;;;17.62;43.86;102267.56;5065900;28;20044;-65
2022/12/03 05:50:08;;;;;;;9.32;7.43;;;;;;;17.66;43.89;102269.00;5065573;28;20052;-66
2022/12/03 05:52:33;;;;;;;7.55;6.57;;;;;;;17.68;44.07;102276.97;5066656;28;20020;-65
2022/12/03 05:54:58;;;;;;;8.50;6.75;;;;;;;17.68;43.92;102268.91;5066876;28;20025;-66
2022/12/03 05:57:24;;;;;;;8.45;6.95;;;;;;;17.67;43.98;102272.56;5066100;28;20732;-65
2022/12/03 05:59:49;;;;;;;7.65;6.18;;;;;;;17.68;44.09;102277.81;5066054;28;20032;-65
2022/12/03 06:02:14;;;;;;;8.80;6.65;;;;;;;17.67;43.85;102270.75;5066357;28;20112;-65
2022/12/03 06:04:39;;;;;;;8.55;6.78;;;;;;;17.69;44.07;102273.28;5066194;28;20033;-65
2022/12/03 06:07:05;;;;;;;7.53;6.65;;;;;;;17.70;44.07;102266.94;5061777;28;20032;-65
2022/12/03 06:09:30;;;;;;;10.32;6.50;;;;;;;17.69;44.40;102262.53;5046175;28;20033;-65
2022/12/03 06:11:55;;;;;;;8.93;7.07;;;;;;;17.72;44.60;102256.91;5046115;28;20036;-65
2022/12/03 06:14:20;;;;;;;10.93;6.68;;;;;;;17.71;44.42;102264.13;5046135;28;20051;-65
2022/12/03 06:16:46;;;;;;;9.02;6.38;;;;;;;17.72;44.81;102255.06;5058209;28;20041;-65
2022/12/03 06:19:11;;;;;;;8.70;6.43;;;;;;;17.73;44.65;102258.59;5064220;28;20077;-65
2022/12/03 06:21:36;;;;;;;8.63;6.82;;;;;;;17.74;44.58;102258.50;5065468;28;20044;-65
2022/12/03 06:24:02;;;;;;;11.07;7.38;;;;;;;17.76;44.71;102253.00;5061912;28;20028;-65
2022/12/03 06:26:28;;;;;;;8.45;6.72;;;;;;;17.78;44.88;102255.56;5062832;28;20051;-65
2022/12/03 06:28:54;;;;;;;8.93;7.13;;;;;;;17.78;45.08;102259.09;5065159;28;20052;-65
2022/12/03 06:31:19;;;;;;;9.10;7.20;;;;;;;17.78;44.67;102252.88;5064602;28;20032;-65
2022/12/03 06:33:44;;;;;;;8.07;6.63;;;;;;;17.80;44.70;102253.59;5061170;28;20485;-65
2022/12/03 06:36:10;;;;;;;8.60;6.50;;;;;;;17.80;44.84;102253.59;5064810;28;20036;-65
2022/12/03 06:38:35;;;;;;;8.27;6.78;;;;;;;17.81;44.99;102244.56;5065501;28;20017;-65
2022/12/03 06:41:00;;;;;;;8.77;7.15;;;;;;;17.80;45.14;102242.81;5065115;28;20665;-65
2022/12/03 06:43:25;;;;;;;8.88;6.95;;;;;;;17.83;45.17;102247.97;5064290;28;20036;-66
2022/12/03 06:45:51;;;;;;;7.93;6.93;;;;;;;17.82;45.12;102247.09;5063813;28;20029;-65
2022/12/03 06:48:16;;;;;;;9.10;6.85;;;;;;;17.77;44.88;102240.41;5064632;28;20060;-65
2022/12/03 06:50:41;;;;;;;9.85;7.00;;;;;;;17.83;45.01;102250.66;5064974;28;20084;-66
2022/12/03 06:53:06;;;;;;;8.60;6.45;;;;;;;17.83;44.78;102248.81;5064941;28;20432;-65
2022/12/03 06:55:32;;;;;;;8.00;7.18;;;;;;;17.82;44.95;102255.19;5061756;28;20043;-65
2022/12/03 06:57:57;;;;;;;7.47;6.07;;;;;;;17.83;45.14;102247.97;5063197;28;20047;-65
2022/12/03 07:00:22;;;;;;;8.48;7.15;;;;;;;17.83;44.93;102248.81;5065031;28;20028;-65
2022/12/03 07:02:48;;;;;;;9.05;7.22;;;;;;;17.85;45.07;102256.78;5064617;28;20437;-65
2022/12/03 07:05:13;;;;;;;8.05;6.85;;;;;;;17.64;44.98;102221.72;5064301;28;20053;-66
2022/12/03 07:07:38;;;;;;;9.02;7.13;;;;;;;17.77;45.42;102243.09;5064433;28;20021;-65
2022/12/03 07:10:04;;;;;;;8.00;6.78;;;;;;;17.85;45.23;102256.78;5064209;28;20532;-66
2022/12/03 07:12:30;;;;;;;10.75;7.55;;;;;;;17.84;45.22;102255.91;5064963;28;20028;-65
2022/12/03 07:14:55;;;;;;;8.50;6.88;;;;;;;17.85;45.01;102268.38;5063262;28;20025;-65
2022/12/03 07:17:20;;;;;;;9.38;7.22;;;;;;;17.77;44.98;102241.25;5064142;28;20047;-65
2022/12/03 07:19:46;;;;;;;10.35;7.25;;;;;;;17.87;45.10;102270.94;5065230;28;20063;-67
2022/12/03 07:22:11;;;;;;;10.25;7.38;;;;;;;17.87;44.88;102262.84;5060948;28;20048;-65
2022/12/03 07:24:36;;;;;;;7.97;6.50;;;;;;;17.86;45.18;102270.09;5058552;28;20048;-65
2022/12/03 07:27:02;;;;;;;8.70;6.72;;;;;;;17.78;44.90;102263.63;5064483;28;20025;-65
2022/12/03 07:29:27;;;;;;;7.85;7.00;;;;;;;17.87;45.12;102273.63;5064635;28;20031;-65
2022/12/03 07:31:52;;;;;;;9.35;7.07;;;;;;;17.64;45.03;102236.03;5062454;28;20029;-65
2022/12/03 07:34:17;;;;;;;9.73;7.25;;;;;;;17.84;45.16;102265.78;5063557;28;20032;-66
2022/12/03 07:36:43;;;;;;;9.43;7.32;;;;;;;17.87;45.02;102277.16;5063405;28;20044;-66
2022/12/03 07:39:08;;;;;;;10.48;7.38;;;;;;;17.88;44.98;102278.00;5063198;28;20021;-66
2022/12/03 07:41:33;;;;;;;8.63;6.88;;;;;;;17.84;45.22;102266.69;5063813;28;20035;-66
2022/12/03 07:43:58;;;;;;;9.27;7.68;;;;;;;17.89;45.16;102280.59;5063949;28;20449;-65
2022/12/03 07:46:24;;;;;;;10.02;6.90;;;;;;;17.90;45.17;102278.75;5063731;28;20059;-66
2022/12/03 07:48:49;;;;;;;11.52;7.97;;;;;;;17.90;45.11;102270.69;5064858;28;20025;-65
2022/12/03 07:51:14;;;;;;;9.48;7.25;;;;;;;17.91;45.08;102277.75;5064532;28;20025;-65
2022/12/03 07:53:40;;;;;;;9.02;7.10;;;;;;;17.92;44.73;102280.31;5064842;28;20029;-66
2022/12/03 07:56:06;;;;;;;10.13;6.80;;;;;;;17.92;44.79;102272.25;5063964;28;20070;-65
2022/12/03 07:58:31;;;;;;;9.73;7.47;;;;;;;17.93;44.78;102279.34;5064710;28;20073;-65
2022/12/03 08:00:56;;;;;;;10.20;7.30;;;;;;;17.93;44.74;102279.34;5062275;28;20105;-65
2022/12/03 08:03:22;;;;;;;8.80;7.55;;;;;;;17.94;44.55;102288.28;5064264;28;20121;-65
2022/12/03 08:05:47;;;;;;;9.40;7.57;;;;;;;17.94;44.46;102278.38;5064197;28;20033;-65
2022/12/03 08:08:13;;;;;;;10.27;7.35;;;;;;;17.94;44.42;102275.66;5064803;28;20061;-65
2022/12/03 08:10:38;;;;;;;9.85;7.50;;;;;;;17.92;44.46;102283.00;5064290;28;20090;-66
2022/12/03 08:13:09;;;;;;;10.70;6.93;;;;;;;17.93;44.58;102281.19;5063598;28;20028;-66
2022/12/03 08:15:34;;;;;;;9.32;7.63;;;;;;;17.94;44.29;102283.75;5063415;28;20033;-69
2022/12/03 08:18:06;;;;;;;9.30;7.07;;;;;;;17.93;44.47;102286.56;5066093;28;20063;-68
2022/12/03 08:20:33;;;;;;;9.55;7.88;;;;;;;17.92;44.23;102284.84;5068112;28;20063;-66
2022/12/03 08:23:03;;;;;;;8.65;7.40;;;;;;;17.93;44.26;102278.50;5071281;28;20033;-68
2022/12/03 08:25:30;;;;;;;10.63;8.30;;;;;;;17.92;44.35;102282.16;5070698;28;20040;-67
2022/12/03 08:28:20;;;;;;;10.57;7.80;;;;;;;17.91;44.43;102291.22;5071765;28;20032;-67
2022/12/03 08:31:11;;;;;;;9.50;7.50;;;;;;;17.90;44.16;102276.06;5046618;28;20071;-68
2022/12/03 08:33:38;;;;;;;10.00;7.28;;;;;;;17.88;44.26;102278.91;5049060;28;20100;-68
2022/12/03 08:36:28;;;;;;;9.63;7.70;;;;;;;17.89;44.11;102277.91;5067569;28;20033;-67
2022/12/03 08:39:17;;;;;;;11.52;8.38;;;;;;;17.90;43.96;102281.44;5065628;28;20061;-66
2022/12/03 08:44:28;;;;;;;10.00;7.60;;;;;;;17.87;44.09;102263.72;5066754;28;20044;-63
2022/12/03 08:47:16;;;;;;;9.57;7.38;;;;;;;17.78;44.18;102245.66;5066964;28;20045;-62
2022/12/03 08:49:41;;;;;;;10.82;8.73;;;;;;;17.86;44.20;102267.38;5066843;28;20029;-61
2022/12/03 08:52:18;;;;;;;11.30;8.10;;;;;;;17.86;44.17;102261.16;5065404;28;20569;-63
2022/12/03 08:54:49;;;;;;;10.65;7.63;;;;;;;17.84;44.18;102264.00;5062111;28;20489;-63
2022/12/03 08:57:32;;;;;;;11.13;7.78;;;;;;;17.85;44.04;102254.94;5066501;28;20031;-63
2022/12/03 08:59:59;;;;;;;10.07;7.75;;;;;;;17.80;43.91;102245.50;5065960;28;20033;-62
2022/12/03 09:02:31;;;;;;;11.63;8.20;;;;;;;17.85;44.12;102254.06;5082687;28;20040;-61
2022/12/03 09:04:57;;;;;;;11.02;7.78;;;;;;;17.85;43.89;102254.94;5066094;28;20044;-61
2022/12/03 09:07:22;;;;;;;9.93;7.53;;;;;;;17.85;44.04;102260.31;5065844;28;20029;-60
2022/12/03 09:09:48;;;;;;;9.52;7.75;;;;;;;17.86;43.98;102261.16;5067103;28;20922;-60
2022/12/03 09:12:13;;;;;;;10.40;8.07;;;;;;;17.86;43.84;102261.16;5066744;28;20128;-59
2022/12/03 09:14:38;;;;;;;11.02;8.52;;;;;;;17.85;43.80;102260.31;5067460;28;20047;-60
2022/12/03 09:17:04;;;;;;;12.25;8.43;;;;;;;17.85;43.76;102264.84;5065896;28;20025;-60
2022/12/03 09:19:32;;;;;;;10.93;7.97;;;;;;;17.83;43.79;102256.03;5066143;28;20044;-60
2022/12/03 09:21:57;;;;;;;11.73;8.83;;;;;;;17.84;43.65;102252.34;5066459;28;20098;-60
2022/12/03 09:24:23;;;;;;;11.05;8.10;;;;;;;17.85;43.89;102271.06;5067407;28;20033;-59
2022/12/03 09:26:48;;;;;;;11.93;8.02;;;;;;;17.85;43.94;102262.16;5066565;28;20107;-60
2022/12/03 09:29:13;;;;;;;12.93;9.00;;;;;;;17.74;43.74;102249.59;5066695;28;20037;-59
2022/12/03 09:31:39;;;;;;;11.60;8.23;;;;;;;17.75;43.88;102243.22;5065565;28;20024;-59
2022/12/03 09:34:05;;;;;;;11.98;7.75;;;;;;;17.79;43.72;102244.66;5066649;28;20036;-56
2022/12/03 09:36:30;;;;;;;12.95;8.25;;;;;;;17.83;43.69;102251.50;5066389;28;20041;-59
2022/12/03 09:38:55;;;;;;;12.63;8.55;;;;;;;17.84;43.82;102255.03;5066978;28;20017;-59
2022/12/03 09:41:21;;;;;;;10.93;8.20;;;;;;;17.80;43.78;102249.09;5065927;28;20031;-59
2022/12/03 09:43:47;;;;;;;11.63;8.93;;;;;;;17.85;43.53;102256.78;5065419;28;20127;-59
2022/12/03 09:46:12;;;;;;;12.43;8.88;;;;;;;17.84;43.79;102247.84;5063974;28;20486;-59
2022/12/03 09:48:37;;;;;;;11.60;8.82;;;;;;;17.83;43.57;102253.34;5066511;28;20057;-59
2022/12/03 09:51:03;;;;;;;11.88;8.32;;;;;;;17.81;43.71;102253.47;5066132;28;20393;-59
2022/12/03 09:53:28;;;;;;;11.40;8.30;;;;;;;17.82;43.80;102246.25;5065930;28;20103;-59
2022/12/03 09:55:57;;;;;;;11.82;8.05;;;;;;;17.81;43.44;102250.78;5059821;28;20029;-59
2022/12/03 09:58:25;;;;;;;12.93;8.57;;;;;;;17.81;43.68;102244.56;5061288;28;20393;-59
2022/12/03 10:00:51;;;;;;;12.85;8.30;;;;;;;17.82;43.49;102246.25;5065860;28;20390;-59
2022/12/03 10:03:20;;;;;;;10.68;8.15;;;;;;;17.80;43.51;102251.78;5066331;28;20017;-59
2022/12/03 10:05:46;;;;;;;9.63;7.68;;;;;;;17.79;43.58;102241.13;5064948;28;20017;-60
2022/12/03 10:08:17;;;;;;;11.32;8.43;;;;;;;17.80;43.74;102242.81;5066114;28;20087;-59
2022/12/03 10:10:42;;;;;;;12.60;8.63;;;;;;;17.80;43.57;102245.50;5064705;28;20028;-60
2022/12/03 10:13:21;;;;;;;13.27;9.00;;;;;;;17.79;43.61;102241.97;5065163;28;20021;-60
2022/12/03 10:15:47;;;;;;;14.17;9.03;;;;;;;17.79;43.71;102241.97;5065445;28;20124;-59
2022/12/03 10:18:21;;;;;;;12.93;8.50;;;;;;;17.79;43.43;102241.97;5064414;28;20040;-59
2022/12/03 10:20:46;;;;;;;11.68;8.98;;;;;;;17.78;43.51;102237.59;5066098;28;20112;-59
2022/12/03 10:23:24;;;;;;;13.68;9.15;;;;;;;17.78;43.63;102242.13;5064158;28;20052;-60
2022/12/03 10:26:03;;;;;;;14.17;8.97;;;;;;;17.77;43.53;102241.25;5063541;28;20048;-59
2022/12/03 10:28:36;;;;;;;12.65;8.73;;;;;;;17.77;43.76;102241.25;5063774;28;20032;-59
2022/12/03 10:31:07;;;;;;;10.82;8.23;;;;;;;17.76;43.96;102236.03;5061790;28;20033;-60
2022/12/03 10:33:36;;;;;;;12.48;8.38;;;;;;;17.76;43.70;102236.03;5064633;28;20044;-60
2022/12/03 10:36:22;;;;;;;13.77;8.80;;;;;;;17.75;43.92;102237.84;5064549;28;20646;-59
2022/12/03 10:39:07;;;;;;;10.00;7.82;;;;;;;17.73;43.84;102223.63;5065233;28;20027;-60
2022/12/03 10:41:32;;;;;;;11.10;7.85;;;;;;;17.72;43.85;102222.78;5062933;28;20041;-62
2022/12/03 10:44:15;;;;;;;13.45;8.95;;;;;;;17.72;43.87;102221.94;5065551;28;20025;-60
2022/12/03 10:46:41;;;;;;;13.93;8.43;;;;;;;17.69;44.01;102219.50;5064033;28;20045;-60
2022/12/03 10:49:08;;;;;;;14.65;9.55;;;;;;;17.72;43.81;102212.03;5065227;28;20063;-60
2022/12/03 10:51:34;;;;;;;12.77;8.65;;;;;;;17.73;43.99;102212.88;5064898;28;20042;-60
2022/12/03 10:54:00;;;;;;;13.95;9.90;;;;;;;17.71;43.78;102207.63;5064680;28;20021;-60
2022/12/03 10:56:26;;;;;;;13.48;8.85;;;;;;;17.72;44.02;102203.97;5063379;28;20033;-60
2022/12/03 10:58:52;;;;;;;11.93;8.88;;;;;;;17.72;43.80;102206.66;5063949;28;20029;-60
2022/12/03 11:01:22;;;;;;;11.85;8.00;;;;;;;17.73;43.78;102204.81;5063032;28;20049;-60
2022/12/03 11:03:47;;;;;;;13.40;8.93;;;;;;;17.74;43.99;102209.22;5045700;28;20552;-60
2022/12/03 11:06:15;;;;;;;14.50;9.68;;;;;;;17.29;43.96;102125.16;5071258;28;20024;-59
2022/12/03 11:08:43;;;;;;;13.77;9.38;;;;;;;17.76;43.80;102201.91;5080231;28;20461;-60
2022/12/03 11:11:26;;;;;;;13.65;8.93;;;;;;;17.76;43.76;102191.16;5079789;28;20037;-60
2022/12/03 11:13:54;;;;;;;12.52;8.85;;;;;;;17.75;43.80;102189.41;5080311;28;20056;-61
2022/12/03 11:16:52;;;;;;;13.15;9.60;;;;;;;17.74;43.62;102179.66;5063830;28;20089;-58
2022/12/03 11:19:41;;;;;;;14.77;9.98;;;;;;;17.74;43.51;102185.03;5003008;28;20053;-59
2022/12/03 11:22:08;;;;;;;13.02;8.65;;;;;;;17.72;43.61;102177.06;5001854;28;20057;-60
2022/12/03 11:24:39;;;;;;;12.45;8.75;;;;;;;17.71;43.55;102182.56;5002524;28;20038;-59
2022/12/03 11:27:05;;;;;;;12.75;9.48;;;;;;;17.71;43.76;102183.44;5002398;28;20050;-59
2022/12/03 11:29:47;;;;;;;13.85;9.48;;;;;;;17.71;43.79;102179.88;5002194;28;20050;-59
2022/12/03 11:32:51;;;;;;;15.60;9.82;;;;;;;17.71;43.93;102174.47;5002351;28;20030;-59
2022/12/03 11:35:22;;;;;;;15.07;11.13;;;;;;;17.72;44.24;102170.84;4975581;28;20426;-60
2022/12/03 11:37:47;;;;;;;15.95;10.60;;;;;;;17.71;43.99;102171.78;5002441;28;20102;-59
2022/12/03 11:40:15;;;;;;;15.60;10.05;;;;;;;17.71;44.26;102169.09;5002708;28;20030;-60
2022/12/03 11:42:41;;;;;;;19.33;11.67;;;;;;;17.71;44.43;102163.72;5002401;28;20085;-60
2022/12/03 11:45:09;;;;;;;16.67;11.48;;;;;;;17.71;44.49;102163.72;5002927;28;20275;-60
2022/12/03 11:47:59;;;;;;;15.68;10.90;;;;;;;17.71;44.63;102158.34;4999676;28;20038;-60